sensor_id;sensor_type;location;lat;lon;timestamp;P1;durP1;ratioP1;P2;durP2;ratioP2
2111;SDS011;1062;52.538;13.400;2023-05-10T13:34:22;9.03;;;2.90;;
2111;SDS011;1062;52.538;13.400;2023-05-10T13:36:49;2.50;;;2.20;;
2111;SDS011;1062;52.538;13.400;2023-05-10T13:39:14;8.63;;;5.10;;
2111;SDS011;1062;52.538;13.400;2023-05-10T13:41:40;4.73;;;4.27;;
2111;SDS011;1062;52.538;13.400;2023-05-10T13:44:06;5.40;;;2.67;;
2111;SDS011;1062;52.538;13.400;2023-05-10T13:46:32;2.77;;;2.57;;
2111;SDS011;1062;52.538;13.400;2023-05-10T13:48:57;4.80;;;3.03;;
2111;SDS011;1062;52.538;13.400;2023-05-10T13:51:23;4.00;;;2.97;;
2111;SDS011;1062;52.538;13.400;2023-05-10T13:53:49;5.30;;;3.00;;
2111;SDS011;1062;52.538;13.400;2023-05-10T13:56:14;4.33;;;3.93;;
2111;SDS011;1062;52.538;13.400;2023-05-10T13:58:40;4.47;;;3.80;;
2111;SDS011;1062;52.538;13.400;2023-05-10T14:01:06;3.27;;;2.97;;
2111;SDS011;1062;52.538;13.400;2023-05-10T14:03:32;7.33;;;3.53;;
2111;SDS011;1062;52.538;13.400;2023-05-10T14:05:58;2.77;;;2.40;;
2111;SDS011;1062;52.538;13.400;2023-05-10T14:08:23;3.70;;;2.87;;
2111;SDS011;1062;52.538;13.400;2023-05-10T14:10:49;2.60;;;2.40;;
2111;SDS011;1062;52.538;13.400;2023-05-10T14:13:15;6.30;;;3.90;;
2111;SDS011;1062;52.538;13.400;2023-05-10T14:15:41;2.93;;;2.50;;
2111;SDS011;1062;52.538;13.400;2023-05-10T14:18:06;2.50;;;2.30;;
2111;SDS011;1062;52.538;13.400;2023-05-10T14:20:32;4.13;;;2.80;;
2111;SDS011;1062;52.538;13.400;2023-05-10T14:22:59;2.40;;;2.20;;
2111;SDS011;1062;52.538;13.400;2023-05-10T14:25:25;2.90;;;2.60;;
2111;SDS011;1062;52.538;13.400;2023-05-10T14:27:51;7.57;;;3.27;;
2111;SDS011;1062;52.538;13.400;2023-05-10T14:30:19;7.87;;;2.57;;
2111;SDS011;1062;52.538;13.400;2023-05-10T14:32:45;4.10;;;2.03;;
2111;SDS011;1062;52.538;13.400;2023-05-10T14:35:11;7.10;;;2.57;;
2111;SDS011;1062;52.538;13.400;2023-05-10T14:37:37;3.37;;;2.60;;
2111;SDS011;1062;52.538;13.400;2023-05-10T14:40:03;2.10;;;1.90;;
2111;SDS011;1062;52.538;13.400;2023-05-10T14:42:29;3.10;;;2.33;;
2111;SDS011;1062;52.538;13.400;2023-05-10T14:44:56;2.63;;;2.20;;
2111;SDS011;1062;52.538;13.400;2023-05-10T14:47:21;3.90;;;2.00;;
2111;SDS011;1062;52.538;13.400;2023-05-10T14:49:47;3.73;;;2.20;;
2111;SDS011;1062;52.538;13.400;2023-05-10T14:52:13;6.97;;;2.70;;
2111;SDS011;1062;52.538;13.400;2023-05-10T14:54:39;2.47;;;2.23;;
2111;SDS011;1062;52.538;13.400;2023-05-10T14:57:05;2.80;;;2.00;;
2111;SDS011;1062;52.538;13.400;2023-05-10T14:59:31;4.20;;;2.10;;
2111;SDS011;1062;52.538;13.400;2023-05-10T15:01:57;3.10;;;2.07;;
2111;SDS011;1062;52.538;13.400;2023-05-10T15:04:22;4.07;;;2.20;;
2111;SDS011;1062;52.538;13.400;2023-05-10T15:06:48;3.83;;;2.93;;
2111;SDS011;1062;52.538;13.400;2023-05-10T15:09:13;2.60;;;2.40;;
2111;SDS011;1062;52.538;13.400;2023-05-10T15:11:41;4.00;;;2.40;;
2111;SDS011;1062;52.538;13.400;2023-05-10T15:14:06;7.63;;;2.70;;
2111;SDS011;1062;52.538;13.400;2023-05-10T15:16:32;5.07;;;2.77;;
2111;SDS011;1062;52.538;13.400;2023-05-10T15:18:58;4.10;;;3.70;;
2111;SDS011;1062;52.538;13.400;2023-05-10T15:21:23;2.70;;;2.50;;
2111;SDS011;1062;52.538;13.400;2023-05-10T15:23:49;2.67;;;2.47;;
2111;SDS011;1062;52.538;13.400;2023-05-10T15:26:14;8.70;;;6.27;;
2111;SDS011;1062;52.538;13.400;2023-05-10T15:28:40;6.53;;;3.07;;
2111;SDS011;1062;52.538;13.400;2023-05-10T15:31:06;3.33;;;3.10;;
2111;SDS011;1062;52.538;13.400;2023-05-10T15:33:31;10.60;;;5.23;;
2111;SDS011;1062;52.538;13.400;2023-05-10T15:35:57;11.10;;;8.07;;
2111;SDS011;1062;52.538;13.400;2023-05-10T15:38:23;7.37;;;6.63;;
2111;SDS011;1062;52.538;13.400;2023-05-10T15:40:48;3.17;;;2.87;;
2111;SDS011;1062;52.538;13.400;2023-05-10T15:43:14;6.20;;;4.93;;
2111;SDS011;1062;52.538;13.400;2023-05-10T15:45:40;2.57;;;2.37;;
2111;SDS011;1062;52.538;13.400;2023-05-10T15:48:06;8.53;;;4.27;;
2111;SDS011;1062;52.538;13.400;2023-05-10T15:50:31;3.73;;;3.23;;
2111;SDS011;1062;52.538;13.400;2023-05-10T15:52:57;8.03;;;7.20;;
2111;SDS011;1062;52.538;13.400;2023-05-10T15:55:23;11.50;;;9.57;;
2111;SDS011;1062;52.538;13.400;2023-05-10T15:57:48;11.13;;;9.00;;
2111;SDS011;1062;52.538;13.400;2023-05-10T16:00:14;13.03;;;9.50;;
2111;SDS011;1062;52.538;13.400;2023-05-10T16:02:40;8.20;;;6.73;;
2111;SDS011;1062;52.538;13.400;2023-05-10T16:05:06;12.73;;;11.37;;
2111;SDS011;1062;52.538;13.400;2023-05-10T16:07:33;7.47;;;6.77;;
2111;SDS011;1062;52.538;13.400;2023-05-10T16:09:59;5.10;;;3.13;;
2111;SDS011;1062;52.538;13.400;2023-05-10T16:12:28;3.40;;;3.10;;
2111;SDS011;1062;52.538;13.400;2023-05-10T16:14:54;3.63;;;3.30;;
2111;SDS011;1062;52.538;13.400;2023-05-10T16:17:20;3.67;;;3.37;;
2111;SDS011;1062;52.538;13.400;2023-05-10T16:19:46;3.70;;;2.70;;
2111;SDS011;1062;52.538;13.400;2023-05-10T16:22:12;3.10;;;2.10;;
2111;SDS011;1062;52.538;13.400;2023-05-10T16:24:38;5.57;;;2.70;;
2111;SDS011;1062;52.538;13.400;2023-05-10T16:27:03;3.00;;;2.70;;
2111;SDS011;1062;52.538;13.400;2023-05-10T16:29:29;5.03;;;2.63;;
2111;SDS011;1062;52.538;13.400;2023-05-10T16:31:55;2.30;;;2.10;;
2111;SDS011;1062;52.538;13.400;2023-05-10T16:34:21;2.80;;;2.17;;
2111;SDS011;1062;52.538;13.400;2023-05-10T16:36:48;2.90;;;2.70;;
2111;SDS011;1062;52.538;13.400;2023-05-10T16:39:14;3.27;;;2.97;;
2111;SDS011;1062;52.538;13.400;2023-05-10T16:41:40;3.17;;;2.60;;
2111;SDS011;1062;52.538;13.400;2023-05-10T16:44:06;2.77;;;2.57;;
2111;SDS011;1062;52.538;13.400;2023-05-10T16:46:31;3.37;;;3.07;;
2111;SDS011;1062;52.538;13.400;2023-05-10T16:48:57;4.50;;;4.10;;
2111;SDS011;1062;52.538;13.400;2023-05-10T16:51:24;4.43;;;4.03;;
2111;SDS011;1062;52.538;13.400;2023-05-10T16:53:50;5.13;;;3.70;;
2111;SDS011;1062;52.538;13.400;2023-05-10T16:56:15;4.17;;;3.77;;
2111;SDS011;1062;52.538;13.400;2023-05-10T16:58:46;5.43;;;4.17;;
2111;SDS011;1062;52.538;13.400;2023-05-10T17:01:15;4.73;;;4.20;;
2111;SDS011;1062;52.538;13.400;2023-05-10T17:03:40;4.10;;;3.80;;
2111;SDS011;1062;52.538;13.400;2023-05-10T17:06:06;4.90;;;4.30;;
2111;SDS011;1062;52.538;13.400;2023-05-10T17:08:32;4.97;;;4.57;;
2111;SDS011;1062;52.538;13.400;2023-05-10T17:11:00;4.53;;;4.13;;
2111;SDS011;1062;52.538;13.400;2023-05-10T17:13:27;7.30;;;4.43;;
2111;SDS011;1062;52.538;13.400;2023-05-10T17:15:53;4.33;;;4.00;;
2111;SDS011;1062;52.538;13.400;2023-05-10T17:18:19;5.53;;;4.33;;
2111;SDS011;1062;52.538;13.400;2023-05-10T17:20:44;5.23;;;4.73;;
2111;SDS011;1062;52.538;13.400;2023-05-10T17:23:10;4.73;;;4.33;;
2111;SDS011;1062;52.538;13.400;2023-05-10T17:25:36;5.27;;;3.67;;
2111;SDS011;1062;52.538;13.400;2023-05-10T17:28:01;5.17;;;4.67;;
2111;SDS011;1062;52.538;13.400;2023-05-10T17:30:27;4.77;;;4.27;;
2111;SDS011;1062;52.538;13.400;2023-05-10T17:32:56;6.40;;;4.97;;
2111;SDS011;1062;52.538;13.400;2023-05-10T17:35:25;6.20;;;5.73;;
2111;SDS011;1062;52.538;13.400;2023-05-10T17:37:50;5.43;;;5.00;;
2111;SDS011;1062;52.538;13.400;2023-05-10T17:40:16;5.30;;;4.90;;
2111;SDS011;1062;52.538;13.400;2023-05-10T17:42:42;5.93;;;5.30;;
2111;SDS011;1062;52.538;13.400;2023-05-10T17:45:08;5.73;;;5.07;;
2111;SDS011;1062;52.538;13.400;2023-05-10T17:47:34;5.40;;;5.00;;
2111;SDS011;1062;52.538;13.400;2023-05-10T17:50:00;8.80;;;7.90;;
2111;SDS011;1062;52.538;13.400;2023-05-10T17:52:25;6.17;;;5.47;;
2111;SDS011;1062;52.538;13.400;2023-05-10T17:54:52;5.23;;;4.77;;
2111;SDS011;1062;52.538;13.400;2023-05-10T17:57:18;6.20;;;5.17;;
2111;SDS011;1062;52.538;13.400;2023-05-10T17:59:44;6.47;;;5.70;;
2111;SDS011;1062;52.538;13.400;2023-05-10T18:02:10;6.83;;;5.37;;
2111;SDS011;1062;52.538;13.400;2023-05-10T18:04:38;6.73;;;5.30;;
2111;SDS011;1062;52.538;13.400;2023-05-10T18:07:04;5.93;;;5.10;;
2111;SDS011;1062;52.538;13.400;2023-05-10T18:09:30;5.47;;;4.97;;
2111;SDS011;1062;52.538;13.400;2023-05-10T18:11:58;5.57;;;5.07;;
2111;SDS011;1062;52.538;13.400;2023-05-10T18:14:23;8.27;;;5.53;;
2111;SDS011;1062;52.538;13.400;2023-05-10T18:16:52;6.90;;;6.00;;
2111;SDS011;1062;52.538;13.400;2023-05-10T18:19:20;6.37;;;5.77;;
2111;SDS011;1062;52.538;13.400;2023-05-10T18:21:50;5.83;;;5.33;;
2111;SDS011;1062;52.538;13.400;2023-05-10T18:24:18;5.57;;;4.67;;
2111;SDS011;1062;52.538;13.400;2023-05-10T18:26:47;5.80;;;5.30;;
2111;SDS011;1062;52.538;13.400;2023-05-10T18:29:12;6.23;;;5.63;;
2111;SDS011;1062;52.538;13.400;2023-05-10T18:31:38;6.03;;;5.50;;
2111;SDS011;1062;52.538;13.400;2023-05-10T18:34:03;6.93;;;5.17;;
2111;SDS011;1062;52.538;13.400;2023-05-10T18:36:29;6.23;;;5.63;;
2111;SDS011;1062;52.538;13.400;2023-05-10T18:38:56;6.40;;;5.90;;
2111;SDS011;1062;52.538;13.400;2023-05-10T18:41:22;6.00;;;5.40;;
2111;SDS011;1062;52.538;13.400;2023-05-10T18:43:50;6.97;;;6.30;;
2111;SDS011;1062;52.538;13.400;2023-05-10T18:46:16;6.00;;;5.00;;
2111;SDS011;1062;52.538;13.400;2023-05-10T18:48:42;6.53;;;5.70;;
2111;SDS011;1062;52.538;13.400;2023-05-10T18:51:07;6.00;;;5.40;;
2111;SDS011;1062;52.538;13.400;2023-05-10T18:53:33;10.27;;;5.67;;
2111;SDS011;1062;52.538;13.400;2023-05-10T18:55:59;6.37;;;5.87;;
2111;SDS011;1062;52.538;13.400;2023-05-10T18:58:27;5.80;;;5.30;;
2111;SDS011;1062;52.538;13.400;2023-05-10T19:00:53;6.27;;;5.30;;
2111;SDS011;1062;52.538;13.400;2023-05-10T19:03:20;6.47;;;4.97;;
2111;SDS011;1062;52.538;13.400;2023-05-10T19:05:46;8.90;;;6.00;;
2111;SDS011;1062;52.538;13.400;2023-05-10T19:08:16;6.30;;;5.80;;
2111;SDS011;1062;52.538;13.400;2023-05-10T19:10:42;7.90;;;6.27;;
2111;SDS011;1062;52.538;13.400;2023-05-10T19:13:07;10.03;;;7.97;;
2111;SDS011;1062;52.538;13.400;2023-05-10T19:15:33;9.90;;;7.23;;
2111;SDS011;1062;52.538;13.400;2023-05-10T19:17:59;9.67;;;8.67;;
2111;SDS011;1062;52.538;13.400;2023-05-10T19:20:24;8.80;;;6.83;;
2111;SDS011;1062;52.538;13.400;2023-05-10T19:22:50;8.27;;;6.17;;
2111;SDS011;1062;52.538;13.400;2023-05-10T19:25:16;8.13;;;6.90;;
2111;SDS011;1062;52.538;13.400;2023-05-10T19:27:42;8.23;;;6.97;;
2111;SDS011;1062;52.538;13.400;2023-05-10T19:30:07;7.67;;;6.90;;
2111;SDS011;1062;52.538;13.400;2023-05-10T19:32:33;7.33;;;6.63;;
2111;SDS011;1062;52.538;13.400;2023-05-10T19:34:59;7.73;;;6.70;;
2111;SDS011;1062;52.538;13.400;2023-05-10T19:37:24;10.20;;;7.67;;
2111;SDS011;1062;52.538;13.400;2023-05-10T19:39:51;8.27;;;6.60;;
2111;SDS011;1062;52.538;13.400;2023-05-10T19:42:17;8.93;;;7.23;;
2111;SDS011;1062;52.538;13.400;2023-05-10T19:44:42;7.07;;;6.30;;
2111;SDS011;1062;52.538;13.400;2023-05-10T19:47:08;7.03;;;6.43;;
2111;SDS011;1062;52.538;13.400;2023-05-10T19:49:34;7.03;;;6.30;;
2111;SDS011;1062;52.538;13.400;2023-05-10T19:52:00;8.73;;;7.93;;
2111;SDS011;1062;52.538;13.400;2023-05-10T19:54:27;8.50;;;6.90;;
2111;SDS011;1062;52.538;13.400;2023-05-10T19:56:53;13.30;;;7.53;;
2111;SDS011;1062;52.538;13.400;2023-05-10T19:59:18;7.40;;;6.70;;
2111;SDS011;1062;52.538;13.400;2023-05-10T20:01:44;8.93;;;7.50;;
2111;SDS011;1062;52.538;13.400;2023-05-10T20:04:10;8.77;;;7.30;;
2111;SDS011;1062;52.538;13.400;2023-05-10T20:06:36;9.50;;;7.40;;
2111;SDS011;1062;52.538;13.400;2023-05-10T20:09:02;10.13;;;7.20;;
2111;SDS011;1062;52.538;13.400;2023-05-10T20:11:28;10.43;;;7.20;;
2111;SDS011;1062;52.538;13.400;2023-05-10T20:13:53;9.80;;;7.30;;
2111;SDS011;1062;52.538;13.400;2023-05-10T20:16:19;8.03;;;7.33;;
2111;SDS011;1062;52.538;13.400;2023-05-10T20:18:45;8.07;;;7.33;;
2111;SDS011;1062;52.538;13.400;2023-05-10T20:21:11;8.27;;;6.60;;
2111;SDS011;1062;52.538;13.400;2023-05-10T20:23:36;9.93;;;7.17;;
2111;SDS011;1062;52.538;13.400;2023-05-10T20:26:02;9.30;;;8.40;;
2111;SDS011;1062;52.538;13.400;2023-05-10T20:28:28;8.67;;;7.87;;
2111;SDS011;1062;52.538;13.400;2023-05-10T20:30:54;9.27;;;7.97;;
2111;SDS011;1062;52.538;13.400;2023-05-10T20:33:23;8.07;;;7.30;;
2111;SDS011;1062;52.538;13.400;2023-05-10T20:35:49;8.43;;;7.20;;
2111;SDS011;1062;52.538;13.400;2023-05-10T20:38:16;12.70;;;8.20;;
2111;SDS011;1062;52.538;13.400;2023-05-10T20:40:42;9.50;;;8.47;;
2111;SDS011;1062;52.538;13.400;2023-05-10T20:43:08;9.10;;;7.53;;
2111;SDS011;1062;52.538;13.400;2023-05-10T20:45:35;10.87;;;8.30;;
2111;SDS011;1062;52.538;13.400;2023-05-10T20:48:01;9.13;;;8.33;;
2111;SDS011;1062;52.538;13.400;2023-05-10T20:50:27;11.03;;;8.67;;
2111;SDS011;1062;52.538;13.400;2023-05-10T20:52:53;9.13;;;8.23;;
2111;SDS011;1062;52.538;13.400;2023-05-10T20:55:19;8.50;;;7.70;;
2111;SDS011;1062;52.538;13.400;2023-05-10T20:57:44;8.27;;;7.33;;
2111;SDS011;1062;52.538;13.400;2023-05-10T21:00:11;9.40;;;8.40;;
2111;SDS011;1062;52.538;13.400;2023-05-10T21:02:40;10.33;;;9.33;;
2111;SDS011;1062;52.538;13.400;2023-05-10T21:05:07;9.77;;;8.90;;
2111;SDS011;1062;52.538;13.400;2023-05-10T21:07:33;12.30;;;9.27;;
2111;SDS011;1062;52.538;13.400;2023-05-10T21:09:58;9.20;;;8.30;;
2111;SDS011;1062;52.538;13.400;2023-05-10T21:12:24;10.30;;;8.67;;
2111;SDS011;1062;52.538;13.400;2023-05-10T21:14:50;10.40;;;8.97;;
2111;SDS011;1062;52.538;13.400;2023-05-10T21:17:15;10.10;;;8.90;;
2111;SDS011;1062;52.538;13.400;2023-05-10T21:19:41;10.90;;;9.90;;
2111;SDS011;1062;52.538;13.400;2023-05-10T21:22:07;13.80;;;9.33;;
2111;SDS011;1062;52.538;13.400;2023-05-10T21:24:33;11.53;;;9.83;;
2111;SDS011;1062;52.538;13.400;2023-05-10T21:26:59;8.97;;;8.07;;
2111;SDS011;1062;52.538;13.400;2023-05-10T21:29:25;9.47;;;8.43;;
2111;SDS011;1062;52.538;13.400;2023-05-10T21:31:51;12.03;;;9.57;;
2111;SDS011;1062;52.538;13.400;2023-05-10T21:34:17;10.67;;;9.33;;
2111;SDS011;1062;52.538;13.400;2023-05-10T21:36:42;12.20;;;10.20;;
2111;SDS011;1062;52.538;13.400;2023-05-10T21:39:08;10.80;;;9.73;;
2111;SDS011;1062;52.538;13.400;2023-05-10T21:41:34;13.87;;;10.37;;
2111;SDS011;1062;52.538;13.400;2023-05-10T21:44:00;9.87;;;8.90;;
2111;SDS011;1062;52.538;13.400;2023-05-10T21:46:25;10.10;;;9.10;;
2111;SDS011;1062;52.538;13.400;2023-05-10T21:48:51;11.43;;;9.30;;
2111;SDS011;1062;52.538;13.400;2023-05-10T21:51:17;11.23;;;10.03;;
2111;SDS011;1062;52.538;13.400;2023-05-10T21:53:42;11.40;;;8.83;;
2111;SDS011;1062;52.538;13.400;2023-05-10T21:56:08;10.03;;;9.00;;
2111;SDS011;1062;52.538;13.400;2023-05-10T21:58:33;9.00;;;8.10;;
2111;SDS011;1062;52.538;13.400;2023-05-10T22:00:59;9.70;;;8.40;;
2111;SDS011;1062;52.538;13.400;2023-05-10T22:03:25;10.30;;;9.03;;
2111;SDS011;1062;52.538;13.400;2023-05-10T22:05:50;9.57;;;7.90;;
2111;SDS011;1062;52.538;13.400;2023-05-10T22:08:16;13.03;;;9.10;;
2111;SDS011;1062;52.538;13.400;2023-05-10T22:10:41;10.33;;;9.33;;
2111;SDS011;1062;52.538;13.400;2023-05-10T22:13:07;10.93;;;9.80;;
2111;SDS011;1062;52.538;13.400;2023-05-10T22:15:33;10.77;;;8.67;;
2111;SDS011;1062;52.538;13.400;2023-05-10T22:17:58;9.57;;;7.90;;
2111;SDS011;1062;52.538;13.400;2023-05-10T22:20:24;10.53;;;8.97;;
2111;SDS011;1062;52.538;13.400;2023-05-10T22:22:49;14.43;;;8.00;;
2111;SDS011;1062;52.538;13.400;2023-05-10T22:25:15;8.97;;;8.03;;
2111;SDS011;1062;52.538;13.400;2023-05-10T22:27:41;10.27;;;8.20;;
2111;SDS011;1062;52.538;13.400;2023-05-10T22:30:06;9.43;;;8.63;;
2111;SDS011;1062;52.538;13.400;2023-05-10T22:32:32;11.40;;;10.00;;
2111;SDS011;1062;52.538;13.400;2023-05-10T22:34:58;10.00;;;8.23;;
2111;SDS011;1062;52.538;13.400;2023-05-10T22:37:24;9.13;;;8.23;;
2111;SDS011;1062;52.538;13.400;2023-05-10T22:39:49;9.40;;;8.40;;
2111;SDS011;1062;52.538;13.400;2023-05-10T22:42:15;9.37;;;8.40;;
2111;SDS011;1062;52.538;13.400;2023-05-10T22:44:41;10.10;;;9.20;;
2111;SDS011;1062;52.538;13.400;2023-05-10T22:47:07;13.63;;;10.30;;
2111;SDS011;1062;52.538;13.400;2023-05-10T22:49:33;12.10;;;9.87;;
2111;SDS011;1062;52.538;13.400;2023-05-10T22:51:58;9.53;;;8.57;;
2111;SDS011;1062;52.538;13.400;2023-05-10T22:54:24;18.43;;;8.50;;
2111;SDS011;1062;52.538;13.400;2023-05-10T22:56:50;10.83;;;9.17;;
2111;SDS011;1062;52.538;13.400;2023-05-10T22:59:15;12.77;;;9.77;;
2111;SDS011;1062;52.538;13.400;2023-05-10T23:01:41;13.43;;;9.40;;
2111;SDS011;1062;52.538;13.400;2023-05-10T23:04:07;13.17;;;9.40;;
2111;SDS011;1062;52.538;13.400;2023-05-10T23:06:32;10.67;;;9.57;;
2111;SDS011;1062;52.538;13.400;2023-05-10T23:08:59;11.50;;;9.10;;
2111;SDS011;1062;52.538;13.400;2023-05-10T23:11:24;10.50;;;9.30;;
2111;SDS011;1062;52.538;13.400;2023-05-10T23:13:50;15.47;;;10.43;;
2111;SDS011;1062;52.538;13.400;2023-05-10T23:16:16;13.00;;;8.60;;
2111;SDS011;1062;52.538;13.400;2023-05-10T23:18:42;12.53;;;9.73;;
2111;SDS011;1062;52.538;13.400;2023-05-10T23:21:08;9.20;;;8.30;;
2111;SDS011;1062;52.538;13.400;2023-05-10T23:23:33;12.90;;;9.00;;
2111;SDS011;1062;52.538;13.400;2023-05-10T23:26:02;10.63;;;9.03;;
2111;SDS011;1062;52.538;13.400;2023-05-10T23:28:29;14.13;;;9.60;;
2111;SDS011;1062;52.538;13.400;2023-05-10T23:30:57;10.40;;;9.40;;
2111;SDS011;1062;52.538;13.400;2023-05-10T23:33:23;10.73;;;9.60;;
2111;SDS011;1062;52.538;13.400;2023-05-10T23:35:52;9.80;;;8.23;;
2111;SDS011;1062;52.538;13.400;2023-05-10T23:38:19;12.90;;;9.43;;
2111;SDS011;1062;52.538;13.400;2023-05-10T23:40:47;12.70;;;9.93;;
2111;SDS011;1062;52.538;13.400;2023-05-10T23:43:14;10.77;;;9.67;;
2111;SDS011;1062;52.538;13.400;2023-05-10T23:45:41;9.67;;;8.67;;
2111;SDS011;1062;52.538;13.400;2023-05-10T23:48:07;12.40;;;9.57;;
2111;SDS011;1062;52.538;13.400;2023-05-10T23:50:33;15.20;;;11.47;;
2111;SDS011;1062;52.538;13.400;2023-05-10T23:52:58;14.03;;;10.73;;
2111;SDS011;1062;52.538;13.400;2023-05-10T23:55:24;11.00;;;10.00;;
2111;SDS011;1062;52.538;13.400;2023-05-10T23:57:50;13.27;;;11.60;;
